Time;durP1;ratioP1;P1;durP2;ratioP2;P2;SDS_P1;SDS_P2;PMS_P1;PMS_P2;Temp;Humidity;BMP_temperature;BMP_pressure;BME280_temperature;BME280_humidity;BME280_pressure;Samples;Min_cycle;Max_cycle;Signal;HPM_P1;HPM_P2
2023/09/29 00:00:20;;;;;;;43.33;16.63;;;;;;;16.26;100.00;101293.84;4937616;28;20121;-76
2023/09/29 00:02:47;;;;;;;37.30;16.95;;;;;;;16.31;100.00;101299.78;4948376;28;20405;-89
2023/09/29 00:05:14;;;;;;;37.63;15.38;;;;;;;16.29;100.00;101296.31;4954534;28;20039;-89
2023/09/29 00:07:40;;;;;;;35.28;14.98;;;;;;;16.32;100.00;101290.50;4956331;28;20065;-89
2023/09/29 00:10:10;;;;;;;38.28;14.85;;;;;;;16.34;100.00;101293.09;4952711;28;20482;-89
2023/09/29 00:12:39;;;;;;;32.88;13.77;;;;;;;16.36;100.00;101288.28;4956250;28;20042;-89
2023/09/29 00:15:06;;;;;;;32.15;14.18;;;;;;;16.33;100.00;101277.53;4953074;28;20102;-88
2023/09/29 00:17:31;;;;;;;36.33;13.85;;;;;;;16.42;100.00;101286.84;4941322;28;20034;-88
2023/09/29 00:19:57;;;;;;;27.40;12.90;;;;;;;16.45;100.00;101287.41;4980486;28;20039;-89
2023/09/29 00:22:23;;;;;;;24.52;13.10;;;;;;;16.48;100.00;101291.78;4926794;28;20401;-89
2023/09/29 00:24:48;;;;;;;23.60;11.80;;;;;;;16.48;100.00;101276.06;4957176;28;20122;-89
2023/09/29 00:27:14;;;;;;;32.03;11.73;;;;;;;16.45;100.00;101279.13;4958884;28;20190;-88
2023/09/29 00:29:40;;;;;;;21.65;11.45;;;;;;;16.45;100.00;101292.94;4950056;28;20066;-89
2023/09/29 00:32:07;;;;;;;26.25;10.25;;;;;;;16.51;100.00;101288.69;4941927;28;20038;-90
2023/09/29 00:34:32;;;;;;;24.70;10.40;;;;;;;16.53;100.00;101281.16;4923375;29;20035;-90
2023/09/29 00:36:58;;;;;;;23.58;11.57;;;;;;;16.55;100.00;101279.09;4961416;28;20038;-89
2023/09/29 00:39:24;;;;;;;26.33;11.93;;;;;;;16.52;100.00;101288.53;4935907;28;20034;-89
2023/09/29 00:41:49;;;;;;;19.67;10.68;;;;;;;16.54;100.00;101288.41;4938477;28;20544;-89
2023/09/29 00:44:15;;;;;;;21.00;10.75;;;;;;;16.55;100.00;101290.16;4938153;28;20030;-91
2023/09/29 00:46:42;;;;;;;20.42;9.90;;;;;;;16.54;100.00;101277.34;4947571;28;20039;-91
2023/09/29 00:49:08;;;;;;;16.67;9.98;;;;;;;16.57;100.00;101273.41;4942303;28;20095;-91
2023/09/29 00:51:34;;;;;;;20.05;9.27;;;;;;;16.58;100.00;101273.28;4956878;28;20046;-89
2023/09/29 00:54:02;;;;;;;14.50;9.50;;;;;;;16.62;100.00;101258.09;4936795;29;20502;-90
2023/09/29 00:56:29;;;;;;;23.20;9.57;;;;;;;16.61;100.00;101253.63;4934984;28;20035;-89
2023/09/29 00:58:58;;;;;;;20.73;9.07;;;;;;;16.63;100.00;101257.09;4935521;28;20039;-90
2023/09/29 01:01:24;;;;;;;20.33;9.20;;;;;;;16.65;100.00;101249.50;4938521;29;20039;-89
2023/09/29 01:03:50;;;;;;;20.83;9.07;;;;;;;16.65;100.00;101252.28;4922821;29;20114;-89
2023/09/29 01:06:16;;;;;;;16.85;8.05;;;;;;;16.65;100.00;101249.50;4940074;28;20119;-90
2023/09/29 01:08:44;;;;;;;19.65;9.15;;;;;;;16.66;100.00;101261.44;4929048;29;20180;-89
2023/09/29 01:11:09;;;;;;;20.60;7.80;;;;;;;16.64;100.00;101258.84;4938892;28;20034;-76
2023/09/29 01:13:40;;;;;;;15.65;8.52;;;;;;;16.67;100.00;101257.66;4953054;28;20034;-76
2023/09/29 01:16:06;;;;;;;16.05;8.05;;;;;;;16.64;100.00;101249.66;4944653;28;20038;-76
2023/09/29 01:18:33;;;;;;;22.17;7.60;;;;;;;16.70;100.00;101252.69;4947989;28;20031;-76
2023/09/29 01:20:59;;;;;;;16.30;7.32;;;;;;;16.76;100.00;101250.34;4942674;28;20035;-76
2023/09/29 01:23:31;;;;;;;12.55;7.60;;;;;;;16.77;100.00;101252.09;4950166;28;20049;-76
2023/09/29 01:25:57;;;;;;;16.67;8.40;;;;;;;16.73;100.00;101251.53;4952386;28;21185;-76
2023/09/29 01:28:24;;;;;;;15.88;8.07;;;;;;;16.75;100.00;101248.63;4950528;28;20489;-76
2023/09/29 01:30:53;;;;;;;12.68;7.72;;;;;;;16.72;100.00;101241.47;4957021;28;20023;-76
2023/09/29 01:33:21;;;;;;;15.27;7.68;;;;;;;16.76;100.00;101242.94;4940055;29;20039;-76
2023/09/29 01:35:47;;;;;;;10.25;7.75;;;;;;;16.73;100.00;101238.56;4951543;28;20031;-76
2023/09/29 01:38:12;;;;;;;13.90;7.68;;;;;;;16.78;100.00;101238.13;4948631;28;20552;-76
2023/09/29 01:40:38;;;;;;;15.15;7.82;;;;;;;16.79;100.00;101237.09;4953934;28;20482;-76
2023/09/29 01:43:03;;;;;;;14.35;7.47;;;;;;;16.73;100.00;101233.03;4946394;28;20470;-76
2023/09/29 01:45:32;;;;;;;13.73;7.47;;;;;;;16.78;100.00;101220.66;4955142;28;20039;-77
2023/09/29 01:47:58;;;;;;;14.05;6.47;;;;;;;16.76;100.00;101220.81;4950409;28;20047;-76
2023/09/29 01:50:24;;;;;;;14.77;8.13;;;;;;;16.71;100.00;101215.72;4948183;28;20016;-76
2023/09/29 01:52:50;;;;;;;15.10;7.03;;;;;;;16.80;100.00;101215.84;4948514;28;20078;-76
2023/09/29 01:55:19;;;;;;;13.10;7.63;;;;;;;16.78;100.00;101204.06;4951827;28;20041;-76
2023/09/29 01:57:47;;;;;;;13.38;7.03;;;;;;;16.80;100.00;101207.53;4966351;28;20038;-76
2023/09/29 02:00:19;;;;;;;13.77;7.18;;;;;;;16.85;100.00;101210.75;4954486;28;20039;-76
2023/09/29 02:02:46;;;;;;;10.17;6.20;;;;;;;16.83;100.00;101207.22;4971097;28;20037;-76
2023/09/29 02:05:12;;;;;;;12.98;6.70;;;;;;;16.80;100.00;101213.06;4952044;28;20312;-76
2023/09/29 02:07:39;;;;;;;13.60;6.32;;;;;;;16.86;100.00;101206.97;4973946;28;20058;-76
2023/09/29 02:10:05;;;;;;;11.68;6.38;;;;;;;16.84;100.00;101201.56;4970117;28;20070;-76
2023/09/29 02:12:31;;;;;;;13.57;6.85;;;;;;;16.84;100.00;101181.31;4955555;28;20034;-76
2023/09/29 02:14:56;;;;;;;14.30;6.50;;;;;;;16.87;100.00;101181.91;4955479;28;20046;-76
2023/09/29 02:17:22;;;;;;;13.57;6.40;;;;;;;16.91;100.00;101182.47;4960875;28;20027;-76
2023/09/29 02:19:48;;;;;;;13.48;5.97;;;;;;;16.93;100.00;101187.84;4953697;28;20050;-76
2023/09/29 02:22:16;;;;;;;12.15;6.22;;;;;;;16.95;100.00;101180.25;4974020;28;20053;-76
2023/09/29 02:24:43;;;;;;;10.30;6.20;;;;;;;16.95;100.00;101185.78;4971165;28;20401;-76
2023/09/29 02:27:09;;;;;;;10.38;5.55;;;;;;;16.96;100.00;101184.78;4960774;28;20027;-76
2023/09/29 02:29:34;;;;;;;13.18;6.57;;;;;;;16.98;100.00;101186.34;4953779;28;20030;-76
2023/09/29 02:32:00;;;;;;;12.50;6.00;;;;;;;16.95;100.00;101175.59;4950478;28;20039;-76
2023/09/29 02:34:26;;;;;;;9.13;5.72;;;;;;;16.94;100.00;101181.28;4938818;28;20101;-76
2023/09/29 02:36:52;;;;;;;12.63;5.53;;;;;;;16.87;100.00;101172.72;4954109;28;20053;-76
2023/09/29 02:39:18;;;;;;;12.35;5.63;;;;;;;16.90;100.00;101167.78;4958892;28;20178;-76
2023/09/29 02:41:44;;;;;;;15.80;5.60;;;;;;;16.87;100.00;101172.72;4956772;28;20117;-76
2023/09/29 02:44:09;;;;;;;13.05;5.88;;;;;;;16.84;100.00;101170.22;4938501;28;20117;-76
2023/09/29 02:46:35;;;;;;;14.25;6.22;;;;;;;16.84;100.00;101165.59;4968869;28;20509;-76
2023/09/29 02:49:03;;;;;;;8.73;5.43;;;;;;;16.83;100.00;101155.53;4955398;28;20042;-76
2023/09/29 02:51:29;;;;;;;13.15;5.53;;;;;;;16.84;100.00;101157.31;4933186;28;20408;-76
2023/09/29 02:53:55;;;;;;;14.73;5.85;;;;;;;16.79;100.00;101156.00;4937983;28;20583;-76
2023/09/29 02:56:23;;;;;;;13.50;5.38;;;;;;;16.87;100.00;101158.91;4952547;28;20026;-76
2023/09/29 02:58:49;;;;;;;10.13;5.40;;;;;;;16.85;100.00;101144.38;4973168;28;20129;-76
2023/09/29 03:01:19;;;;;;;16.58;5.45;;;;;;;16.90;100.00;101140.13;4952875;28;20561;-76
2023/09/29 03:03:46;;;;;;;13.98;5.20;;;;;;;16.90;100.00;101144.75;4967461;28;20437;-76
2023/09/29 03:06:16;;;;;;;14.85;6.07;;;;;;;16.93;100.00;101147.22;4972669;28;20026;-76
2023/09/29 03:08:41;;;;;;;16.17;5.53;;;;;;;16.99;100.00;101149.38;4973159;28;20054;-76
2023/09/29 03:11:09;;;;;;;8.32;5.47;;;;;;;17.00;100.00;101148.31;4971857;28;20042;-76
2023/09/29 03:13:40;;;;;;;10.73;5.60;;;;;;;17.05;100.00;101153.41;4953410;28;20050;-76
2023/09/29 03:16:07;;;;;;;11.88;6.13;;;;;;;17.01;100.00;101149.22;4956406;28;20043;-76
2023/09/29 03:18:35;;;;;;;11.55;5.75;;;;;;;17.04;100.00;101144.22;4949134;28;20121;-76
2023/09/29 03:21:01;;;;;;;10.35;5.43;;;;;;;17.07;100.00;101138.38;4953435;28;20564;-76
2023/09/29 03:23:26;;;;;;;12.50;5.85;;;;;;;17.06;100.00;101130.25;4976582;28;20097;-76
2023/09/29 03:25:52;;;;;;;9.95;5.22;;;;;;;17.12;100.00;101139.81;4949567;28;20027;-76
2023/09/29 03:28:17;;;;;;;11.63;5.90;;;;;;;17.13;100.00;101141.53;4935903;28;20042;-76
2023/09/29 03:30:43;;;;;;;9.40;5.53;;;;;;;17.12;100.00;101137.94;4975381;28;20105;-76
2023/09/29 03:33:10;;;;;;;11.38;5.43;;;;;;;17.14;100.00;101140.53;4944047;28;20042;-89
2023/09/29 03:35:35;;;;;;;8.77;4.82;;;;;;;17.21;100.00;101131.41;4946501;28;20049;-89
2023/09/29 03:38:00;;;;;;;10.20;4.80;;;;;;;17.20;100.00;101137.09;4958685;28;20030;-90
2023/09/29 03:40:27;;;;;;;8.27;4.57;;;;;;;17.25;100.00;101130.09;4943518;28;20504;-90
2023/09/29 03:42:54;;;;;;;24.90;4.72;;;;;;;17.24;100.00;101122.81;4923993;29;20038;-91
2023/09/29 03:45:19;;;;;;;12.73;4.47;;;;;;;17.27;100.00;101110.56;4956155;28;20027;-90
2023/09/29 03:47:46;;;;;;;10.32;4.55;;;;;;;17.31;100.00;101111.97;4924409;28;20037;-91
2023/09/29 03:50:12;;;;;;;12.70;4.63;;;;;;;17.33;100.00;101101.63;4942270;28;20035;-91
2023/09/29 03:52:39;;;;;;;13.07;4.78;;;;;;;17.30;100.00;101104.72;4935554;29;20051;-90
2023/09/29 03:55:06;;;;;;;7.65;4.28;;;;;;;17.34;100.00;101103.34;4936953;28;20061;-90
2023/09/29 03:57:32;;;;;;;7.68;4.32;;;;;;;17.33;100.00;101103.50;4952584;28;20042;-89
2023/09/29 03:59:57;;;;;;;8.32;4.20;;;;;;;17.32;100.00;101102.66;4946774;28;20019;-90
2023/09/29 04:02:23;;;;;;;11.95;4.28;;;;;;;17.31;100.00;101095.34;4939482;28;20493;-88
2023/09/29 04:04:48;;;;;;;9.85;3.95;;;;;;;17.37;100.00;101096.63;4968571;28;20118;-91
2023/09/29 04:07:18;;;;;;;10.13;4.30;;;;;;;17.40;100.00;101088.88;4958792;28;20105;-90
2023/09/29 04:09:43;;;;;;;13.00;5.15;;;;;;;17.35;100.00;101082.94;4959252;28;20031;-90
2023/09/29 04:12:08;;;;;;;6.40;4.30;;;;;;;17.44;100.00;101075.56;4923919;29;20429;-91
2023/09/29 04:14:34;;;;;;;10.43;4.43;;;;;;;17.40;100.00;101085.25;4931382;28;20035;-90
2023/09/29 04:17:01;;;;;;;10.45;4.05;;;;;;;17.52;100.00;101085.84;4941680;28;20046;-90
2023/09/29 04:19:26;;;;;;;9.43;4.20;;;;;;;17.47;100.00;101078.03;4948392;28;20124;-91
2023/09/29 04:21:52;;;;;;;10.60;4.10;;;;;;;17.56;100.00;101085.38;4940912;28;20071;-90
2023/09/29 04:24:17;;;;;;;9.40;4.38;;;;;;;17.59;100.00;101075.84;4957103;28;20031;-87
2023/09/29 04:26:43;;;;;;;6.65;4.35;;;;;;;17.65;100.00;101077.97;4922371;28;20038;-89
2023/09/29 04:29:08;;;;;;;10.52;4.18;;;;;;;17.68;100.00;101080.44;4966350;28;20034;-87
2023/09/29 04:31:33;;;;;;;9.23;4.30;;;;;;;17.59;100.00;101095.25;4953418;28;20031;-88
2023/09/29 04:33:59;;;;;;;8.52;3.83;;;;;;;17.68;100.00;101091.50;4923039;28;20408;-87
2023/09/29 04:36:24;;;;;;;7.70;4.03;;;;;;;17.71;100.00;101084.75;4952791;28;20034;-85
2023/09/29 04:38:50;;;;;;;7.90;3.97;;;;;;;17.68;100.00;101079.56;4920673;28;20449;-86
2023/09/29 04:41:16;;;;;;;11.90;3.80;;;;;;;17.64;100.00;101077.13;4938690;28;20038;-77
2023/09/29 04:43:41;;;;;;;6.20;3.55;;;;;;;17.74;100.00;101076.13;4966132;28;20033;-77
2023/09/29 04:46:07;;;;;;;8.75;4.03;;;;;;;17.75;100.00;101069.56;4951508;28;20453;-77
2023/09/29 04:48:32;;;;;;;7.40;3.42;;;;;;;17.72;100.00;101064.34;4957062;28;20082;-77
2023/09/29 04:51:00;;;;;;;9.55;4.13;;;;;;;17.64;100.00;101067.94;4949967;28;20019;-77
2023/09/29 04:53:26;;;;;;;5.80;4.10;;;;;;;17.75;100.00;101075.09;4963385;28;20473;-76
2023/09/29 04:55:51;;;;;;;9.00;3.80;;;;;;;17.68;100.00;101085.13;4950498;28;20097;-77
2023/09/29 04:58:17;;;;;;;12.15;3.92;;;;;;;17.73;100.00;101075.25;4937632;28;20093;-77
2023/09/29 05:00:42;;;;;;;11.85;3.42;;;;;;;17.72;100.00;101073.50;4958506;28;20046;-77
2023/09/29 05:03:08;;;;;;;7.78;3.75;;;;;;;17.72;100.00;101056.03;4950412;28;20467;-77
2023/09/29 05:05:33;;;;;;;7.88;3.42;;;;;;;17.87;100.00;101059.06;4947031;28;20085;-77
2023/09/29 05:07:59;;;;;;;8.82;3.97;;;;;;;17.86;100.00;101060.13;4964506;28;20545;-77
2023/09/29 05:10:24;;;;;;;9.38;3.70;;;;;;;17.89;100.00;101059.81;4948820;28;20031;-77
2023/09/29 05:12:50;;;;;;;11.07;4.00;;;;;;;17.88;100.00;101058.94;4945373;28;20420;-77
2023/09/29 05:15:15;;;;;;;9.63;4.07;;;;;;;17.92;100.00;101057.59;4947606;28;20031;-77
2023/09/29 05:17:40;;;;;;;6.78;3.65;;;;;;;17.87;100.00;101067.38;4965825;28;20046;-77
2023/09/29 05:20:07;;;;;;;10.30;3.53;;;;;;;17.75;100.00;101072.34;4949673;28;20126;-77
2023/09/29 05:22:32;;;;;;;9.50;3.63;;;;;;;17.71;100.00;101057.97;4958119;28;20061;-77
2023/09/29 05:25:01;;;;;;;5.13;3.22;;;;;;;17.82;100.00;101052.13;4968426;28;20059;-77
2023/09/29 05:27:31;;;;;;;6.18;4.15;;;;;;;17.94;100.00;101049.97;4966751;28;20034;-77
2023/09/29 05:29:57;;;;;;;10.73;3.83;;;;;;;17.99;100.00;101050.34;4947228;28;20035;-77
2023/09/29 05:32:23;;;;;;;12.48;4.05;;;;;;;17.99;100.00;101050.34;4966633;28;20469;-77
2023/09/29 05:34:48;;;;;;;12.52;4.47;;;;;;;17.99;100.00;101043.94;4952351;28;20037;-77
2023/09/29 05:37:14;;;;;;;9.48;4.18;;;;;;;17.99;100.00;101038.41;4946661;28;20039;-77
2023/09/29 05:39:40;;;;;;;7.32;3.63;;;;;;;17.96;100.00;101041.50;4956212;28;20054;-77
2023/09/29 05:42:05;;;;;;;7.53;3.75;;;;;;;17.97;100.00;101030.25;4941275;28;20097;-77
2023/09/29 05:44:31;;;;;;;5.97;3.30;;;;;;;17.99;100.00;101039.25;4973629;28;20039;-77
2023/09/29 05:46:56;;;;;;;9.45;3.13;;;;;;;18.05;100.00;101031.31;4962041;28;20035;-77
2023/09/29 05:49:21;;;;;;;7.35;4.63;;;;;;;18.12;100.00;101035.19;4970310;28;20031;-77
2023/09/29 05:51:47;;;;;;;7.72;3.35;;;;;;;18.17;100.00;101041.09;4952763;28;20027;-77
2023/09/29 05:54:12;;;;;;;15.00;3.67;;;;;;;18.23;100.00;101034.00;4953784;28;20063;-77
2023/09/29 05:56:38;;;;;;;7.85;3.53;;;;;;;18.22;100.00;101041.44;4972679;28;20122;-77
2023/09/29 05:59:05;;;;;;;9.20;2.97;;;;;;;18.22;100.00;101035.91;4923604;28;20137;-77
2023/09/29 06:01:30;;;;;;;10.60;3.83;;;;;;;18.26;100.00;101036.44;4955166;28;20485;-77
2023/09/29 06:03:57;;;;;;;3.97;3.40;;;;;;;18.28;100.00;101034.34;4952667;28;20042;-77
2023/09/29 06:06:23;;;;;;;4.55;2.88;;;;;;;18.34;100.00;101036.47;4969953;28;20698;-77
2023/09/29 06:08:49;;;;;;;9.43;3.20;;;;;;;18.38;100.00;101023.97;4940790;28;20540;-77
2023/09/29 06:11:14;;;;;;;6.78;3.08;;;;;;;18.46;100.00;101028.69;4959376;28;20046;-77
2023/09/29 06:13:40;;;;;;;4.85;2.78;;;;;;;18.56;100.00;101032.19;4954371;28;20030;-77
2023/09/29 06:16:06;;;;;;;8.05;3.25;;;;;;;18.51;100.00;101037.38;4938532;28;20050;-78
2023/09/29 06:18:31;;;;;;;7.30;2.63;;;;;;;18.45;100.00;101038.94;4960605;28;20960;-77
2023/09/29 06:20:57;;;;;;;8.48;2.95;;;;;;;18.42;100.00;101043.94;4968585;28;20333;-76
2023/09/29 06:23:22;;;;;;;7.55;2.88;;;;;;;18.48;100.00;101035.81;4967932;28;20027;-77
2023/09/29 06:25:56;;;;;;;5.45;2.63;;;;;;;18.56;100.00;101032.19;4936901;28;20027;-77
2023/09/29 06:28:21;;;;;;;12.05;3.13;;;;;;;18.55;100.00;101039.63;4945331;28;20062;-77
2023/09/29 06:30:47;;;;;;;5.30;2.80;;;;;;;18.57;100.00;101035.84;4957367;28;20740;-77
2023/09/29 06:33:12;;;;;;;5.30;2.70;;;;;;;18.58;100.00;101035.69;4958966;28;20089;-77
2023/09/29 06:35:39;;;;;;;8.77;3.03;;;;;;;18.73;100.00;101039.50;4972440;28;20033;-76
2023/09/29 06:38:04;;;;;;;9.30;3.28;;;;;;;18.79;100.00;101035.19;4964990;28;20039;-77
2023/09/29 06:40:30;;;;;;;5.43;2.50;;;;;;;18.79;100.00;101031.53;4948212;28;20031;-76
2023/09/29 06:42:55;;;;;;;7.47;2.90;;;;;;;18.84;100.00;101031.91;4930780;28;20408;-75
2023/09/29 06:45:20;;;;;;;7.55;2.30;;;;;;;18.92;100.00;101029.16;4971042;28;20035;-76
2023/09/29 06:47:46;;;;;;;13.05;2.40;;;;;;;18.98;100.00;101038.72;4948537;29;20027;-76
2023/09/29 06:50:11;;;;;;;7.60;2.88;;;;;;;19.06;100.00;101041.50;4948702;28;20455;-76
2023/09/29 06:52:38;;;;;;;5.75;2.40;;;;;;;19.14;100.00;101041.50;4953719;28;20031;-75
2023/09/29 06:55:04;;;;;;;6.45;2.63;;;;;;;19.14;100.00;101044.28;4969372;28;20059;-76
2023/09/29 06:57:30;;;;;;;6.22;2.55;;;;;;;19.29;100.00;101038.88;4952684;28;20042;-76
2023/09/29 06:59:55;;;;;;;11.70;2.90;;;;;;;19.36;100.00;101037.13;4967973;28;20554;-76
2023/09/29 07:02:21;;;;;;;5.32;2.55;;;;;;;19.42;100.00;101044.78;4946397;29;20047;-76
2023/09/29 07:04:47;;;;;;;4.90;2.63;;;;;;;19.59;100.00;101039.19;4929771;28;20713;-76
2023/09/29 07:07:13;;;;;;;3.05;2.10;;;;;;;19.62;100.00;101038.84;4972349;28;20038;-76
2023/09/29 07:09:39;;;;;;;7.63;2.20;;;;;;;19.78;100.00;101033.28;4935278;28;20699;-76
2023/09/29 07:12:06;;;;;;;7.35;2.50;;;;;;;19.90;100.00;101044.03;4970476;28;20173;-76
2023/09/29 07:14:32;;;;;;;7.25;3.13;;;;;;;19.80;100.00;101045.09;4947270;28;20049;-76
2023/09/29 07:16:57;;;;;;;7.05;3.13;;;;;;;19.77;100.00;101053.78;4954722;28;20046;-76
2023/09/29 07:19:22;;;;;;;3.85;3.05;;;;;;;19.80;100.00;101060.91;4947414;28;20035;-76
2023/09/29 07:21:48;;;;;;;15.20;3.50;;;;;;;19.82;100.00;101056.03;4951820;29;20031;-76
2023/09/29 07:24:13;;;;;;;7.75;3.38;;;;;;;19.85;100.00;101052.88;4945344;28;20113;-76
2023/09/29 07:26:39;;;;;;;8.57;3.60;;;;;;;19.85;100.00;101061.22;4942182;28;20504;-76
2023/09/29 07:29:04;;;;;;;8.77;3.15;;;;;;;19.75;100.00;101053.09;4933564;28;20117;-76
2023/09/29 07:31:38;;;;;;;7.22;3.55;;;;;;;19.83;100.00;101058.63;4944566;29;20035;-76
2023/09/29 07:34:04;;;;;;;10.02;3.45;;;;;;;19.80;100.00;101067.31;4960229;28;20474;-76
2023/09/29 07:36:31;;;;;;;13.88;3.75;;;;;;;19.79;100.00;101061.94;4959587;28;20027;-76
2023/09/29 07:38:58;;;;;;;18.25;4.07;;;;;;;19.77;100.00;101056.53;4959698;28;20031;-76
2023/09/29 07:41:23;;;;;;;7.22;3.30;;;;;;;19.83;100.00;101074.44;4964841;28;20503;-76
2023/09/29 07:43:48;;;;;;;9.15;3.70;;;;;;;19.86;100.00;101071.31;4967431;28;20043;-76
2023/09/29 07:46:14;;;;;;;10.50;3.78;;;;;;;19.96;100.00;101071.97;4964368;28;20357;-76
2023/09/29 07:48:39;;;;;;;12.43;3.67;;;;;;;20.06;100.00;101068.13;4950404;29;20051;-75
2023/09/29 07:51:04;;;;;;;9.27;3.08;;;;;;;20.23;100.00;101068.94;4916990;28;20091;-76
2023/09/29 07:53:30;;;;;;;12.95;3.03;;;;;;;20.29;100.00;101077.41;4944271;28;20059;-76
2023/09/29 07:55:55;;;;;;;7.25;3.03;;;;;;;20.59;100.00;101076.75;4949597;28;20050;-76
2023/09/29 07:58:21;;;;;;;8.75;2.92;;;;;;;20.77;100.00;101069.03;4968823;28;20042;-76
2023/09/29 08:00:46;;;;;;;4.78;2.88;;;;;;;20.88;100.00;101074.19;4971444;28;20394;-76
2023/09/29 08:03:11;;;;;;;9.82;3.10;;;;;;;21.11;100.00;101076.13;4951937;28;20125;-76
2023/09/29 08:05:37;;;;;;;9.27;3.13;;;;;;;21.23;100.00;101084.91;4968408;28;20054;-76
2023/09/29 08:08:03;;;;;;;5.25;2.58;;;;;;;21.04;100.00;101083.50;4968341;28;20035;-76
2023/09/29 08:10:28;;;;;;;10.05;2.42;;;;;;;20.95;100.00;101076.25;4966974;28;20027;-76
2023/09/29 08:12:55;;;;;;;12.90;2.60;;;;;;;21.23;100.00;101076.53;4969272;28;20105;-76
2023/09/29 08:15:21;;;;;;;7.05;2.70;;;;;;;21.41;100.00;101077.06;4949554;28;20039;-76
2023/09/29 08:17:47;;;;;;;6.20;2.20;;;;;;;22.00;100.00;101075.50;4965527;28;20027;-76
2023/09/29 08:20:14;;;;;;;12.57;2.75;;;;;;;22.11;100.00;101079.75;4968225;28;20030;-76
2023/09/29 08:22:40;;;;;;;8.88;2.20;;;;;;;22.00;100.00;101087.50;4957296;28;20026;-76
2023/09/29 08:25:07;;;;;;;10.68;1.98;;;;;;;22.19;100.00;101086.06;4947659;28;20504;-76
2023/09/29 08:27:34;;;;;;;5.93;2.40;;;;;;;22.41;100.00;101088.13;4965361;28;20031;-76
2023/09/29 08:30:00;;;;;;;10.88;2.13;;;;;;;22.46;100.00;101091.19;4966378;28;20401;-76
2023/09/29 08:32:25;;;;;;;11.50;2.22;;;;;;;22.45;100.00;101095.91;4964341;28;20186;-76
2023/09/29 08:34:51;;;;;;;8.50;2.58;;;;;;;22.34;100.00;101100.06;4965882;28;20081;-76
2023/09/29 08:37:17;;;;;;;5.97;2.08;;;;;;;22.17;100.00;101104.06;4965828;28;20085;-76
2023/09/29 08:39:42;;;;;;;3.85;1.83;;;;;;;22.42;100.00;101112.19;4935462;28;20043;-76
2023/09/29 08:42:21;;;;;;;16.27;2.38;;;;;;;22.50;100.00;101107.38;4953261;28;20122;-76
2023/09/29 08:44:48;;;;;;;9.75;2.08;;;;;;;22.49;100.00;101118.72;4947763;28;20500;-76
2023/09/29 08:47:18;;;;;;;6.10;2.20;;;;;;;22.61;100.00;101117.16;4967517;28;20045;-76
2023/09/29 08:49:46;;;;;;;3.63;2.22;;;;;;;22.51;100.00;101119.38;4968228;28;20022;-76
2023/09/29 08:52:13;;;;;;;6.03;2.38;;;;;;;22.19;100.00;101116.75;4959669;28;20079;-76
2023/09/29 08:54:39;;;;;;;7.60;2.58;;;;;;;21.84;100.00;101121.13;4952717;28;20078;-76
2023/09/29 08:57:07;;;;;;;5.72;1.95;;;;;;;21.95;100.00;101122.59;4946925;28;20027;-76
2023/09/29 08:59:33;;;;;;;7.20;2.42;;;;;;;22.07;100.00;101121.09;4952020;28;20046;-76
2023/09/29 09:01:59;;;;;;;6.22;1.98;;;;;;;21.93;100.00;101130.31;4939831;28;20043;-76
2023/09/29 09:04:27;;;;;;;11.60;1.80;;;;;;;21.66;100.00;101124.25;4922515;28;20045;-76
2023/09/29 09:06:52;;;;;;;8.43;2.45;;;;;;;21.77;100.00;101128.53;4967019;28;20073;-76
2023/09/29 09:09:22;;;;;;;7.97;2.20;;;;;;;21.99;100.00;101129.56;4969215;28;20034;-76
2023/09/29 09:11:48;;;;;;;6.78;2.08;;;;;;;22.25;100.00;101136.56;4966574;28;20031;-76
2023/09/29 09:14:13;;;;;;;6.80;2.28;;;;;;;21.97;100.00;101138.09;4968618;28;20053;-76
2023/09/29 09:16:40;;;;;;;10.30;2.33;;;;;;;22.01;100.00;101136.66;4951057;28;20406;-76
2023/09/29 09:19:10;;;;;;;12.02;2.50;;;;;;;22.19;100.00;101133.50;4937813;28;20062;-76
2023/09/29 09:21:36;;;;;;;11.20;2.50;;;;;;;22.35;100.00;101145.53;4942313;28;20152;-87
2023/09/29 09:24:02;;;;;;;6.63;2.45;;;;;;;22.36;100.00;101142.56;4948505;28;20486;-87
2023/09/29 09:26:28;;;;;;;10.90;2.70;;;;;;;22.30;100.00;101145.25;4967129;28;20049;-87
2023/09/29 09:28:55;;;;;;;9.65;2.40;;;;;;;22.61;100.00;101144.19;4949003;28;20014;-87
2023/09/29 09:31:20;;;;;;;8.80;2.60;;;;;;;22.23;100.00;101156.28;4949546;28;20031;-87
2023/09/29 09:33:50;;;;;;;12.55;2.33;;;;;;;22.33;100.00;101154.13;4951902;28;20408;-87
2023/09/29 09:36:16;;;;;;;7.35;2.60;;;;;;;21.87;100.00;101153.34;4928076;29;20046;-87
2023/09/29 09:38:42;;;;;;;6.20;2.20;;;;;;;21.82;100.00;101154.81;4938121;28;20015;-87
2023/09/29 09:41:09;;;;;;;9.70;3.53;;;;;;;21.72;100.00;101161.69;4936614;28;20397;-87
2023/09/29 09:43:35;;;;;;;10.95;2.95;;;;;;;21.54;100.00;101171.22;4967553;28;20030;-87
2023/09/29 09:46:12;;;;;;;11.85;2.55;;;;;;;21.57;100.00;101170.00;4961953;28;20437;-87
2023/09/29 09:48:55;;;;;;;11.65;2.75;;;;;;;21.71;100.00;101165.50;4942098;28;20078;-87
2023/09/29 09:51:34;;;;;;;8.82;2.20;;;;;;;21.71;100.00;101179.44;4970528;28;20027;-87
2023/09/29 09:54:02;;;;;;;16.90;2.85;;;;;;;21.61;100.00;101168.56;4959193;28;20410;-86
2023/09/29 09:56:40;;;;;;;12.63;2.40;;;;;;;21.52;100.00;101169.69;4943375;28;20031;-87
2023/09/29 09:59:07;;;;;;;6.25;2.67;;;;;;;21.64;100.00;101170.97;4950422;28;20601;-87
2023/09/29 10:01:34;;;;;;;8.63;2.25;;;;;;;21.59;100.00;101179.03;4946766;29;20027;-86
2023/09/29 10:04:05;;;;;;;9.35;2.92;;;;;;;21.69;100.00;101178.78;4949635;28;20500;-87
2023/09/29 10:06:31;;;;;;;8.77;2.63;;;;;;;22.06;100.00;101177.91;4947047;28;20039;-87
2023/09/29 10:09:00;;;;;;;10.98;2.85;;;;;;;22.02;100.00;101180.22;4947463;29;20035;-87
2023/09/29 10:11:29;;;;;;;7.82;3.00;;;;;;;22.09;100.00;101182.25;4942475;28;20152;-87
2023/09/29 10:14:06;;;;;;;6.90;2.28;;;;;;;21.91;100.00;101188.19;4947321;28;20039;-87
2023/09/29 10:16:31;;;;;;;14.50;3.30;;;;;;;21.97;100.00;101184.63;4941680;28;20490;-87
2023/09/29 10:19:05;;;;;;;9.85;3.35;;;;;;;21.86;100.00;101180.38;4948380;29;20019;-87
2023/09/29 10:21:41;;;;;;;11.40;2.83;;;;;;;21.74;100.00;101191.13;4950508;28;20118;-87
2023/09/29 10:24:06;;;;;;;9.82;2.78;;;;;;;21.64;100.00;101194.16;4940963;28;20027;-87
2023/09/29 10:26:46;;;;;;;8.05;3.05;;;;;;;21.41;100.00;101193.22;4951992;28;20091;-87
2023/09/29 10:29:20;;;;;;;10.65;2.97;;;;;;;21.16;100.00;101198.09;4960013;28;20105;-87
2023/09/29 10:31:50;;;;;;;13.27;3.15;;;;;;;21.48;100.00;101188.72;4946897;29;20106;-76
2023/09/29 10:34:21;;;;;;;13.98;3.33;;;;;;;21.91;100.00;101183.47;4954133;29;20143;-76
2023/09/29 10:36:54;;;;;;;5.80;2.58;;;;;;;21.71;100.00;101187.81;4933238;29;20110;-76
2023/09/29 10:39:39;;;;;;;7.95;2.55;;;;;;;21.79;100.00;101207.25;4944909;29;20556;-75
2023/09/29 10:42:15;;;;;;;11.07;2.97;;;;;;;21.72;100.00;101201.56;4942040;29;20036;-76
2023/09/29 10:44:55;;;;;;;7.93;2.67;;;;;;;21.74;100.00;101209.75;4944261;29;20102;-76
2023/09/29 10:47:34;;;;;;;10.10;2.75;;;;;;;21.73;100.00;101206.09;4945318;29;20401;-76
2023/09/29 10:50:03;;;;;;;7.28;2.53;;;;;;;21.89;100.00;101207.88;4952424;29;20031;-76
2023/09/29 10:52:29;;;;;;;10.23;2.92;;;;;;;21.98;100.00;101205.88;4943077;28;20024;-76
2023/09/29 10:54:59;;;;;;;8.60;2.60;;;;;;;22.06;100.00;101210.53;4964523;28;20051;-76
2023/09/29 10:57:28;;;;;;;11.85;2.92;;;;;;;21.97;100.00;101209.72;4968054;28;20118;-76
2023/09/29 10:59:59;;;;;;;12.43;2.85;;;;;;;21.87;100.00;101209.13;4970344;28;20035;-76
2023/09/29 11:02:30;;;;;;;6.22;2.60;;;;;;;21.79;100.00;101216.50;4968488;28;20027;-76
2023/09/29 11:04:57;;;;;;;6.43;2.40;;;;;;;21.87;100.00;101218.34;4962870;28;20027;-76
2023/09/29 11:07:29;;;;;;;16.25;2.83;;;;;;;22.11;100.00;101216.41;4946565;28;20033;-76
2023/09/29 11:09:54;;;;;;;7.00;2.22;;;;;;;22.29;100.00;101224.47;4951895;28;20026;-76